createdAt,value
2018-11-23T00:02:27.886Z,2.25
2018-11-23T00:04:58.843Z,2.29
2018-11-23T00:07:29.712Z,2.29
2018-11-23T00:10:00.910Z,2.21
2018-11-23T00:12:32.027Z,2.14
2018-11-23T00:15:03.340Z,2.09
2018-11-23T00:17:34.490Z,2.18
2018-11-23T00:20:07.505Z,2.24
2018-11-23T00:22:38.673Z,2.22
2018-11-23T00:25:12.562Z,2.13
2018-11-23T00:27:43.716Z,2.04
2018-11-23T00:30:26.636Z,2.07
2018-11-23T00:32:57.861Z,1.99
2018-11-23T00:35:30.193Z,2.03
2018-11-23T00:38:01.430Z,2.12
2018-11-23T00:40:33.070Z,2.14
2018-11-23T00:43:04.179Z,2.20
2018-11-23T00:45:35.751Z,2.21
2018-11-23T00:48:07.597Z,2.18
2018-11-23T00:50:38.580Z,2.18
2018-11-23T00:53:09.692Z,2.15
2018-11-23T00:55:40.796Z,2.18
2018-11-23T00:58:13.848Z,2.16
2018-11-23T01:00:45.019Z,2.22
2018-11-23T01:03:16.301Z,2.31
2018-11-23T01:05:48.310Z,2.30
2018-11-23T01:08:19.622Z,2.29
2018-11-23T01:10:50.891Z,2.34
2018-11-23T01:13:22.079Z,2.30
2018-11-23T01:15:53.155Z,2.30
2018-11-23T01:18:24.229Z,2.26
2018-11-23T01:20:55.340Z,2.27
2018-11-23T01:23:26.660Z,2.28
2018-11-23T01:25:57.787Z,2.25
2018-11-23T01:28:29.004Z,2.18
2018-11-23T01:31:00.059Z,2.08
2018-11-23T01:33:31.409Z,2.13
2018-11-23T01:36:03.350Z,2.19
2018-11-23T01:38:34.427Z,2.24
2018-11-23T01:41:05.974Z,2.29
2018-11-23T01:43:37.285Z,2.34
2018-11-23T01:46:08.551Z,2.37
2018-11-23T01:48:39.860Z,2.30
2018-11-23T01:51:11.089Z,2.20
2018-11-23T01:53:42.137Z,2.02
2018-11-23T01:56:13.362Z,2.09
2018-11-23T01:58:44.500Z,2.18
2018-11-23T02:01:16.362Z,2.26
2018-11-23T02:03:47.775Z,2.23
2018-11-23T02:06:18.900Z,2.22
2018-11-23T02:08:50.568Z,2.23
2018-11-23T02:11:22.379Z,2.18
2018-11-23T02:13:53.450Z,1.95
2018-11-23T02:16:24.564Z,2.02
2018-11-23T02:18:55.733Z,2.03
2018-11-23T02:21:26.931Z,2.07
2018-11-23T02:23:58.375Z,2.10
2018-11-23T02:26:29.248Z,2.14
2018-11-23T02:29:00.358Z,2.18
2018-11-23T02:31:32.210Z,2.15
2018-11-23T02:34:03.101Z,2.16
2018-11-23T02:36:34.056Z,2.21
2018-11-23T02:39:07.467Z,2.16
2018-11-23T02:41:38.496Z,2.18
2018-11-23T02:44:09.762Z,2.24
2018-11-23T02:46:41.207Z,2.28
2018-11-23T02:49:12.817Z,2.33
2018-11-23T02:51:44.012Z,2.33
2018-11-23T02:54:15.587Z,2.34
2018-11-23T02:56:47.690Z,2.32
2018-11-23T02:59:18.634Z,2.30
2018-11-23T03:01:49.568Z,2.27
2018-11-23T03:04:20.525Z,2.30
2018-11-23T03:06:51.801Z,2.37
2018-11-23T03:09:22.856Z,2.31
2018-11-23T03:11:54.191Z,2.30
2018-11-23T03:14:25.055Z,2.33
2018-11-23T03:16:56.116Z,2.29
2018-11-23T03:19:27.027Z,2.25
2018-11-23T03:21:58.288Z,2.30
2018-11-23T03:24:29.228Z,2.35
2018-11-23T03:27:00.716Z,2.37
2018-11-23T03:29:31.765Z,2.35
2018-11-23T03:32:02.683Z,2.41
2018-11-23T03:34:33.520Z,2.41
2018-11-23T03:37:04.545Z,2.42
2018-11-23T03:39:35.493Z,2.42
2018-11-23T03:42:06.651Z,2.38
2018-11-23T03:44:37.783Z,2.39
2018-11-23T03:47:08.778Z,2.39
2018-11-23T03:49:40.192Z,2.43
2018-11-23T03:52:11.120Z,2.42
2018-11-23T03:54:42.194Z,2.44
2018-11-23T03:57:13.259Z,2.44
2018-11-23T03:59:44.213Z,2.46
2018-11-23T04:02:15.204Z,2.46
2018-11-23T04:04:46.171Z,2.44
2018-11-23T04:07:17.060Z,2.47
2018-11-23T04:09:47.957Z,2.48
2018-11-23T04:12:19.022Z,2.53
2018-11-23T04:14:50.113Z,2.55
2018-11-23T04:17:21.335Z,2.53
2018-11-23T04:19:52.324Z,2.51
2018-11-23T04:22:23.367Z,2.49
2018-11-23T04:24:54.574Z,2.51
2018-11-23T04:27:25.606Z,2.53
2018-11-23T04:29:56.636Z,2.56
2018-11-23T04:32:27.791Z,2.59
2018-11-23T04:34:59.102Z,2.61
2018-11-23T04:37:30.037Z,2.62
2018-11-23T04:40:05.137Z,2.64
2018-11-23T04:42:36.450Z,2.65
2018-11-23T04:45:08.099Z,2.69
2018-11-23T04:47:42.752Z,2.69
2018-11-23T04:50:15.745Z,2.67
2018-11-23T04:53:02.107Z,2.74
2018-11-23T04:55:33.072Z,2.73
2018-11-23T04:58:04.108Z,2.71
2018-11-23T05:00:35.052Z,2.69
2018-11-23T05:03:06.286Z,2.66
2018-11-23T05:05:37.197Z,2.68
2018-11-23T05:08:11.176Z,2.69
2018-11-23T05:10:42.121Z,2.69
2018-11-23T05:13:12.981Z,2.72
2018-11-23T05:15:43.978Z,2.76
2018-11-23T05:18:14.990Z,2.79
2018-11-23T05:20:46.189Z,2.76
2018-11-23T05:23:17.251Z,2.75
2018-11-23T05:25:48.415Z,2.77
2018-11-23T05:28:19.436Z,2.72
2018-11-23T05:30:50.922Z,2.69
2018-11-23T05:33:21.851Z,2.71
2018-11-23T05:35:52.921Z,2.72
2018-11-23T05:38:24.129Z,2.73
2018-11-23T05:40:55.655Z,2.73
2018-11-23T05:43:26.699Z,2.78
2018-11-23T05:45:57.650Z,2.72
2018-11-23T05:48:28.516Z,2.70
2018-11-23T05:50:59.482Z,2.71
2018-11-23T05:53:30.433Z,2.72
2018-11-23T05:56:01.783Z,2.75
2018-11-23T05:58:32.652Z,2.74
2018-11-23T06:01:03.801Z,2.76
2018-11-23T06:03:35.096Z,2.76
2018-11-23T06:06:06.237Z,2.72
2018-11-23T06:08:37.335Z,2.75
2018-11-23T06:11:08.845Z,2.72
2018-11-23T06:13:40.532Z,2.71
2018-11-23T06:16:12.090Z,2.70
2018-11-23T06:18:43.144Z,2.68
2018-11-23T06:21:14.354Z,2.72
2018-11-23T06:23:45.512Z,2.73
2018-11-23T06:26:22.993Z,2.74
2018-11-23T06:28:54.641Z,2.76
2018-11-23T06:31:25.661Z,2.74
2018-11-23T06:33:56.829Z,2.71
2018-11-23T06:36:27.951Z,2.69
2018-11-23T06:38:59.031Z,2.71
2018-11-23T06:41:30.312Z,2.71
2018-11-23T06:44:01.895Z,2.73
2018-11-23T06:46:33.222Z,2.68
2018-11-23T06:49:04.625Z,2.65
2018-11-23T06:51:36.248Z,2.68
2018-11-23T06:54:08.550Z,2.71
2018-11-23T06:56:40.060Z,2.69
2018-11-23T06:59:11.250Z,2.69
2018-11-23T07:01:42.443Z,2.71
2018-11-23T07:04:13.680Z,2.73
2018-11-23T07:06:44.895Z,2.71
2018-11-23T07:09:16.302Z,2.73
2018-11-23T07:11:47.456Z,2.69
2018-11-23T07:14:18.590Z,2.67
2018-11-23T07:16:49.755Z,2.69
2018-11-23T07:19:20.762Z,2.67
2018-11-23T07:21:52.081Z,2.75
2018-11-23T07:24:23.090Z,2.70
2018-11-23T07:26:54.317Z,2.70
2018-11-23T07:29:25.463Z,2.63
2018-11-23T07:31:56.743Z,2.68
2018-11-23T07:34:28.117Z,2.67
2018-11-23T07:36:59.361Z,2.69
2018-11-23T07:40:25.570Z,2.79
2018-11-23T07:42:57.196Z,2.81
2018-11-23T07:45:28.656Z,2.78
2018-11-23T07:47:59.951Z,2.73
2018-11-23T07:50:31.105Z,2.70
2018-11-23T07:53:02.269Z,2.69
2018-11-23T07:55:33.544Z,2.68
2018-11-23T07:58:04.757Z,2.72
2018-11-23T08:00:35.938Z,2.78
2018-11-23T08:03:07.615Z,2.77
2018-11-23T08:05:39.112Z,2.77
2018-11-23T08:08:10.455Z,2.79
2018-11-23T08:10:40.272Z,2.77
2018-11-23T08:13:11.727Z,2.86
2018-11-23T08:15:42.981Z,2.83
2018-11-23T08:18:14.271Z,2.84
2018-11-23T08:20:45.546Z,2.82
2018-11-23T08:23:16.632Z,2.83
2018-11-23T08:25:47.821Z,2.80
2018-11-23T08:28:18.717Z,2.84
2018-11-23T08:30:49.786Z,2.94
2018-11-23T08:33:21.524Z,2.89
2018-11-23T08:35:52.828Z,2.86
2018-11-23T08:38:23.936Z,2.93
2018-11-23T08:40:55.169Z,2.95
2018-11-23T08:43:26.751Z,2.97
2018-11-23T08:45:57.867Z,3.02
2018-11-23T08:48:29.092Z,2.99
2018-11-23T08:51:00.231Z,3.01
2018-11-23T08:53:35.368Z,2.99
2018-11-23T08:56:07.077Z,3.02
2018-11-23T08:58:38.329Z,3.01
2018-11-23T09:01:09.602Z,2.97
2018-11-23T09:03:40.866Z,2.95
2018-11-23T09:06:12.115Z,2.91
2018-11-23T09:08:43.402Z,2.94
2018-11-23T09:11:14.732Z,3.01
2018-11-23T09:13:46.055Z,3.01
2018-11-23T09:16:17.212Z,3.05
2018-11-23T09:18:48.840Z,3.04
2018-11-23T09:21:20.388Z,3.09
2018-11-23T09:23:51.522Z,3.09
2018-11-23T09:26:22.821Z,2.97
2018-11-23T09:28:54.062Z,2.88
2018-11-23T09:31:25.974Z,2.97
2018-11-23T09:33:57.104Z,3.04
2018-11-23T09:36:28.485Z,3.06
2018-11-23T09:39:00.022Z,3.12
2018-11-23T09:41:31.655Z,3.08
2018-11-23T09:44:02.923Z,3.04
2018-11-23T09:46:33.967Z,3.20
2018-11-23T09:49:05.579Z,3.24
2018-11-23T09:51:36.710Z,3.22
2018-11-23T09:54:08.345Z,3.17
2018-11-23T09:56:39.806Z,3.15
2018-11-23T09:59:10.971Z,3.08
2018-11-23T10:01:42.634Z,3.08
2018-11-23T10:04:13.944Z,3.00
2018-11-23T10:06:45.258Z,2.95
2018-11-23T10:09:16.990Z,2.89
2018-11-23T10:11:47.984Z,2.96
2018-11-23T10:14:19.280Z,3.01
2018-11-23T10:16:50.559Z,3.06
2018-11-23T10:19:40.804Z,3.10
2018-11-23T10:22:12.148Z,3.04
2018-11-23T10:24:43.337Z,3.02
2018-11-23T10:27:14.595Z,3.03
2018-11-23T10:29:45.665Z,2.98
2018-11-23T10:32:17.153Z,3.00
2018-11-23T10:34:48.568Z,3.03
2018-11-23T10:37:19.704Z,3.03
2018-11-23T10:39:50.950Z,3.04
2018-11-23T10:42:22.145Z,3.08
2018-11-23T10:44:53.457Z,3.05
2018-11-23T10:47:24.509Z,3.08
2018-11-23T10:49:55.955Z,3.12
2018-11-23T10:52:26.989Z,3.13
2018-11-23T10:54:58.135Z,3.11
2018-11-23T10:57:29.418Z,2.94
2018-11-23T11:00:00.647Z,3.01
2018-11-23T11:02:44.922Z,3.18
2018-11-23T11:05:38.155Z,3.22
2018-11-23T11:08:09.801Z,3.10
2018-11-23T11:10:41.138Z,3.09
2018-11-23T11:13:12.431Z,3.10
2018-11-23T11:15:43.641Z,3.11
2018-11-23T11:18:14.838Z,3.19
2018-11-23T11:20:45.961Z,3.16
2018-11-23T11:23:17.178Z,3.15
2018-11-23T11:25:48.187Z,3.09
2018-11-23T11:28:19.532Z,2.95
2018-11-23T11:30:50.757Z,2.87
2018-11-23T11:33:21.945Z,2.79
2018-11-23T11:35:53.283Z,2.84
2018-11-23T11:38:24.432Z,2.83
2018-11-23T11:40:55.969Z,2.85
2018-11-23T11:43:27.001Z,2.92
2018-11-23T11:45:58.230Z,2.81
2018-11-23T11:48:29.324Z,2.79
2018-11-23T11:51:00.967Z,2.91
2018-11-23T11:53:32.016Z,2.96
2018-11-23T11:56:03.353Z,2.90
2018-11-23T11:58:34.435Z,2.88
2018-11-23T12:01:05.828Z,2.79
2018-11-23T12:03:37.269Z,2.76
2018-11-23T12:06:08.630Z,2.69
2018-11-23T12:08:39.840Z,2.66
2018-11-23T12:11:10.707Z,2.59
2018-11-23T12:13:41.569Z,2.52
2018-11-23T12:16:12.541Z,2.54
2018-11-23T12:18:44.281Z,2.61
2018-11-23T12:21:15.242Z,2.58
2018-11-23T12:23:46.400Z,2.57
2018-11-23T12:26:18.040Z,2.59
2018-11-23T12:28:49.436Z,2.52
2018-11-23T12:31:20.698Z,2.63
2018-11-23T12:33:52.454Z,2.72
2018-11-23T12:36:23.613Z,2.75
2018-11-23T12:38:54.678Z,2.85
2018-11-23T12:41:26.133Z,2.87
2018-11-23T12:43:57.460Z,2.86
2018-11-23T12:46:28.403Z,2.86
2018-11-23T12:48:59.340Z,2.89
2018-11-23T12:51:30.393Z,2.89
2018-11-23T12:54:01.353Z,2.88
2018-11-23T12:56:32.349Z,2.99
2018-11-23T12:59:03.220Z,3.04
2018-11-23T13:01:34.080Z,3.07
2018-11-23T13:04:05.552Z,2.97
2018-11-23T13:06:36.511Z,2.90
2018-11-23T13:09:09.758Z,2.76
2018-11-23T13:11:42.800Z,2.81
2018-11-23T13:14:13.864Z,2.86
2018-11-23T13:16:44.920Z,2.92
2018-11-23T13:19:15.896Z,2.91
2018-11-23T13:21:47.061Z,2.95
2018-11-23T13:24:18.226Z,2.88
2018-11-23T13:26:49.290Z,2.89
2018-11-23T13:29:20.418Z,2.95
2018-11-23T13:31:51.304Z,2.84
2018-11-23T13:34:22.817Z,2.84
2018-11-23T13:36:54.163Z,2.75
2018-11-23T13:39:25.149Z,2.78
2018-11-23T13:41:56.292Z,2.78
2018-11-23T13:44:27.282Z,2.79
2018-11-23T13:46:58.293Z,2.83
2018-11-23T13:49:29.728Z,2.88
2018-11-23T13:52:01.035Z,2.98
2018-11-23T13:54:32.245Z,2.96
2018-11-23T13:57:03.492Z,2.90
2018-11-23T13:59:34.687Z,2.82
2018-11-23T14:02:05.789Z,2.72
2018-11-23T14:04:37.107Z,2.74
2018-11-23T14:07:08.235Z,2.71
2018-11-23T14:09:39.417Z,2.71
2018-11-23T14:12:10.589Z,2.76
2018-11-23T14:14:41.907Z,2.78
2018-11-23T14:17:13.266Z,2.66
2018-11-23T14:19:44.118Z,2.63
2018-11-23T14:22:15.298Z,2.63
2018-11-23T14:24:46.250Z,2.55
2018-11-23T14:27:17.378Z,2.51
2018-11-23T14:29:48.236Z,2.45
2018-11-23T14:32:19.757Z,2.41
2018-11-23T14:34:51.531Z,2.46
2018-11-23T14:37:22.462Z,2.36
2018-11-23T14:39:53.538Z,2.37
2018-11-23T14:42:24.445Z,2.36
2018-11-23T14:44:55.420Z,2.34
2018-11-23T14:47:26.277Z,2.28
2018-11-23T14:49:57.319Z,2.32
2018-11-23T14:52:28.387Z,2.37
2018-11-23T14:54:59.756Z,2.34
2018-11-23T14:57:30.971Z,2.38
2018-11-23T15:00:02.065Z,2.35
2018-11-23T15:02:33.136Z,2.39
2018-11-23T15:05:04.262Z,2.38
2018-11-23T15:07:35.238Z,2.37
2018-11-23T15:10:11.920Z,2.27
2018-11-23T15:12:43.128Z,2.34
2018-11-23T15:15:16.293Z,2.39
2018-11-23T15:17:48.496Z,2.39
2018-11-23T15:20:24.808Z,2.38
2018-11-23T15:23:08.085Z,2.29
2018-11-23T15:25:39.415Z,2.36
2018-11-23T15:28:12.532Z,2.34
2018-11-23T15:30:44.309Z,2.34
2018-11-23T15:33:16.981Z,2.33
2018-11-23T15:35:48.810Z,2.35
2018-11-23T15:38:27.272Z,2.36
2018-11-23T15:40:58.579Z,2.36
2018-11-23T15:43:29.741Z,2.36
2018-11-23T15:46:00.824Z,2.36
2018-11-23T15:48:31.974Z,2.37
2018-11-23T15:51:09.791Z,2.34
2018-11-23T15:53:40.845Z,2.35
2018-11-23T15:56:11.983Z,2.33
2018-11-23T15:58:43.307Z,2.34
2018-11-23T16:01:14.537Z,2.34
2018-11-23T16:03:45.777Z,2.36
2018-11-23T16:06:16.827Z,2.34
2018-11-23T16:08:48.025Z,2.36
2018-11-23T16:11:18.965Z,2.27
2018-11-23T16:13:50.634Z,2.26
2018-11-23T16:16:22.473Z,2.26
2018-11-23T16:18:53.465Z,2.33
2018-11-23T16:21:24.722Z,2.30
2018-11-23T16:23:55.644Z,2.30
2018-11-23T16:26:26.653Z,2.29
2018-11-23T16:28:57.977Z,2.33
2018-11-23T16:31:29.116Z,2.33
2018-11-23T16:34:00.303Z,2.37
2018-11-23T16:36:31.415Z,2.37
2018-11-23T16:39:02.584Z,2.29
2018-11-23T16:41:33.709Z,2.30
2018-11-23T16:44:04.898Z,2.30
2018-11-23T16:46:36.392Z,2.31
2018-11-23T16:49:07.554Z,2.31
2018-11-23T16:51:38.615Z,2.35
2018-11-23T16:54:09.595Z,2.38
2018-11-23T16:56:45.718Z,2.38
2018-11-23T16:59:16.991Z,2.39
2018-11-23T17:01:48.737Z,2.40
2018-11-23T17:04:20.217Z,2.39
2018-11-23T17:06:51.448Z,2.41
2018-11-23T17:09:22.696Z,2.43
2018-11-23T17:14:26.940Z,2.53
2018-11-23T17:17:01.922Z,2.48
2018-11-23T17:19:34.118Z,2.43
2018-11-23T17:22:14.806Z,2.46
2018-11-23T17:24:46.841Z,2.47
2018-11-23T17:27:18.317Z,2.46
2018-11-23T17:29:49.306Z,2.51
2018-11-23T17:32:21.009Z,2.55
2018-11-23T17:34:52.725Z,2.53
2018-11-23T17:37:23.901Z,2.57
2018-11-23T17:39:57.665Z,2.55
2018-11-23T17:42:28.772Z,2.57
2018-11-23T17:45:00.216Z,2.54
2018-11-23T17:47:31.407Z,2.59
2018-11-23T17:50:02.280Z,2.61
2018-11-23T17:52:33.554Z,2.59
2018-11-23T17:55:04.643Z,2.59
2018-11-23T17:57:36.007Z,2.62
2018-11-23T18:00:11.021Z,2.57
2018-11-23T18:02:42.285Z,2.59
2018-11-23T18:05:14.996Z,2.60
2018-11-23T18:07:46.197Z,2.56
2018-11-23T18:10:36.402Z,2.62
2018-11-23T18:13:07.750Z,2.53
2018-11-23T18:15:38.845Z,2.53
2018-11-23T18:18:10.341Z,2.49
2018-11-23T18:20:42.525Z,2.53
2018-11-23T18:23:14.092Z,2.51
2018-11-23T18:25:45.568Z,2.52
2018-11-23T18:28:16.784Z,2.52
2018-11-23T18:30:48.291Z,2.57
2018-11-23T18:33:19.493Z,2.54
2018-11-23T18:35:50.564Z,2.56
2018-11-23T18:38:21.909Z,2.53
2018-11-23T18:40:53.109Z,2.45
2018-11-23T18:43:24.320Z,2.43
2018-11-23T18:45:55.467Z,2.44
2018-11-23T18:48:26.587Z,2.51
2018-11-23T18:50:57.730Z,2.49
2018-11-23T18:53:28.874Z,2.50
2018-11-23T18:56:00.321Z,2.49
2018-11-23T18:58:31.651Z,2.44
2018-11-23T19:01:02.766Z,2.49
2018-11-23T19:03:34.025Z,2.49
2018-11-23T19:06:05.329Z,2.46
2018-11-23T19:08:36.804Z,2.47
2018-11-23T19:11:08.621Z,2.43
2018-11-23T19:13:39.668Z,2.47
2018-11-23T19:16:11.519Z,2.48
2018-11-23T19:18:42.804Z,2.44
2018-11-23T19:21:13.874Z,2.42
2018-11-23T19:23:45.061Z,2.45
2018-11-23T19:26:16.616Z,2.37
2018-11-23T19:28:48.168Z,2.39
2018-11-23T19:31:19.429Z,2.33
2018-11-23T19:33:50.887Z,2.37
2018-11-23T19:36:22.327Z,2.31
2018-11-23T19:38:53.541Z,2.30
2018-11-23T19:41:26.060Z,2.31
2018-11-23T19:43:56.931Z,2.31
2018-11-23T19:46:28.158Z,2.34
2018-11-23T19:48:59.685Z,2.37
2018-11-23T19:51:31.030Z,2.35
2018-11-23T19:54:02.002Z,2.28
2018-11-23T19:56:33.245Z,2.29
2018-11-23T19:59:04.454Z,2.33
2018-11-23T20:01:35.961Z,2.26
2018-11-23T20:04:07.614Z,2.28
2018-11-23T20:06:42.864Z,2.30
2018-11-23T20:09:12.298Z,2.28
2018-11-23T20:11:43.454Z,2.34
2018-11-23T20:14:15.283Z,2.34
2018-11-23T20:16:46.675Z,2.38
2018-11-23T20:19:18.035Z,2.39
2018-11-23T20:21:49.501Z,2.40
2018-11-23T20:24:20.805Z,2.37
2018-11-23T20:26:52.141Z,2.41
2018-11-23T20:29:23.651Z,2.43
2018-11-23T20:31:55.181Z,2.42
2018-11-23T20:34:27.880Z,2.47
2018-11-23T20:36:59.610Z,2.50
2018-11-23T20:39:31.098Z,2.51
2018-11-23T20:42:02.367Z,2.51
2018-11-23T20:44:33.902Z,2.52
2018-11-23T20:47:05.010Z,2.57
2018-11-23T20:49:36.445Z,2.60
2018-11-23T20:52:07.927Z,2.52
2018-11-23T20:54:39.115Z,2.57
2018-11-23T20:57:10.480Z,2.63
2018-11-23T20:59:41.610Z,2.60
2018-11-23T21:02:12.790Z,2.64
2018-11-23T21:04:44.338Z,2.66
2018-11-23T21:07:15.360Z,2.63
2018-11-23T21:09:46.505Z,2.59
2018-11-23T21:12:17.816Z,2.62
2018-11-23T21:14:49.058Z,2.58
2018-11-23T21:17:21.018Z,2.58
2018-11-23T21:19:52.264Z,2.63
2018-11-23T21:22:23.648Z,2.62
2018-11-23T21:24:55.338Z,2.69
2018-11-23T21:27:26.537Z,2.65
2018-11-23T21:29:58.431Z,2.71
2018-11-23T21:32:30.135Z,2.72
2018-11-23T21:35:01.577Z,2.75
2018-11-23T21:37:33.026Z,2.74
2018-11-23T21:40:04.583Z,2.81
2018-11-23T21:42:36.124Z,2.86
2018-11-23T21:45:09.303Z,2.85
2018-11-23T21:47:40.761Z,2.83
2018-11-23T21:50:14.171Z,2.81
2018-11-23T21:52:46.063Z,2.84
2018-11-23T21:55:26.819Z,2.87
2018-11-23T21:57:58.584Z,2.89
2018-11-23T22:00:30.115Z,2.91
2018-11-23T22:03:01.989Z,2.90
2018-11-23T22:05:33.334Z,2.91
2018-11-23T22:08:04.991Z,2.89
2018-11-23T22:10:36.175Z,2.91
2018-11-23T22:13:07.864Z,2.94
2018-11-23T22:15:38.965Z,2.96
2018-11-23T22:18:10.408Z,2.96
2018-11-23T22:20:41.540Z,2.95
2018-11-23T22:23:12.791Z,2.96
2018-11-23T22:25:43.740Z,2.93
2018-11-23T22:28:15.105Z,2.93
2018-11-23T22:30:46.152Z,2.94
2018-11-23T22:33:17.675Z,2.94
2018-11-23T22:35:49.187Z,2.94
2018-11-23T22:38:20.438Z,3.02
2018-11-23T22:40:51.940Z,3.01
2018-11-23T22:43:23.127Z,2.99
2018-11-23T22:45:54.794Z,3.02
2018-11-23T22:48:26.267Z,3.02
2018-11-23T22:50:57.335Z,3.00
2018-11-23T22:53:28.419Z,3.02
2018-11-23T22:55:59.787Z,3.09
2018-11-23T22:58:30.829Z,3.08
2018-11-23T23:01:05.122Z,3.09
2018-11-23T23:03:36.223Z,3.12
2018-11-23T23:06:07.538Z,3.10
2018-11-23T23:08:38.576Z,3.14
2018-11-23T23:11:09.753Z,3.17
2018-11-23T23:13:41.110Z,3.15
2018-11-23T23:16:12.387Z,3.13
2018-11-23T23:18:43.823Z,3.17
2018-11-23T23:21:15.295Z,3.21
2018-11-23T23:23:46.330Z,3.26
2018-11-23T23:26:17.351Z,3.23
2018-11-23T23:28:48.853Z,3.27
2018-11-23T23:31:20.099Z,3.25
2018-11-23T23:33:51.578Z,3.25
2018-11-23T23:36:22.876Z,3.23
2018-11-23T23:38:54.062Z,3.21
2018-11-23T23:41:25.671Z,3.23
2018-11-23T23:43:56.703Z,3.22
2018-11-23T23:46:27.780Z,3.25
2018-11-23T23:48:59.209Z,3.31
2018-11-23T23:51:30.514Z,3.35
2018-11-23T23:54:02.002Z,3.38
2018-11-23T23:56:33.260Z,3.32
2018-11-23T23:59:04.525Z,3.27
